Time;durP1;ratioP1;P1;durP2;ratioP2;P2;SDS_P1;SDS_P2;PMS_P1;PMS_P2;Temp;Humidity;BMP_temperature;BMP_pressure;BME280_temperature;BME280_humidity;BME280_pressure;Samples;Min_cycle;Max_cycle;Signal;HPM_P1;HPM_P2
2022/05/15 00:01:23;;;;;;;14.45;4.10;;;9.90;99.90;;;;;;5088997;28;20047;-66
2022/05/15 00:03:49;;;;;;;;;;;9.90;99.90;;;;;;5103168;28;20100;-66
2022/05/15 00:06:15;;;;;;;11.00;4.18;;;9.80;99.90;;;;;;5101880;28;20074;-66
2022/05/15 00:08:41;;;;;;;;;;;9.70;99.90;;;;;;5103532;28;20036;-66
2022/05/15 00:11:09;;;;;;;9.50;4.10;;;9.70;99.90;;;;;;5102404;28;19915;-68
2022/05/15 00:13:36;;;;;;;13.88;4.22;;;9.70;99.90;;;;;;5102236;28;20067;-66
2022/05/15 00:16:01;;;;;;;13.30;4.50;;;9.70;99.90;;;;;;5102536;28;20118;-68
2022/05/15 00:18:27;;;;;;;;;;;9.70;99.90;;;;;;5091489;28;20119;-67
2022/05/15 00:20:53;;;;;;;12.77;4.47;;;9.60;99.90;;;;;;5088493;28;20624;-67
2022/05/15 00:23:21;;;;;;;11.27;4.70;;;9.60;99.90;;;;;;5088727;28;20040;-66
2022/05/15 00:25:48;;;;;;;13.40;4.40;;;9.50;99.90;;;;;;5088553;28;20054;-67
2022/05/15 00:28:13;;;;;;;9.95;4.68;;;9.50;99.90;;;;;;5086830;28;20115;-67
2022/05/15 00:30:39;;;;;;;;;;;9.50;99.90;;;;;;5086301;28;20139;-68
2022/05/15 00:33:06;;;;;;;13.50;4.53;;;9.50;99.90;;;;;;5088033;28;19920;-67
2022/05/15 00:35:36;;;;;;;13.80;6.05;;;9.50;99.90;;;;;;5088304;28;20052;-70
2022/05/15 00:38:07;;;;;;;16.45;4.95;;;9.50;99.90;;;;;;5088301;28;20163;-66
2022/05/15 00:40:34;;;;;;;14.90;5.30;;;9.50;99.90;;;;;;5088801;28;20519;-67
2022/05/15 00:43:00;;;;;;;11.98;4.82;;;9.40;99.90;;;;;;5087828;28;20416;-67
2022/05/15 00:45:25;;;;;;;;;;;9.40;99.90;;;;;;5089008;28;20044;-68
2022/05/15 00:47:51;;;;;;;11.60;4.18;;;9.40;99.90;;;;;;5087449;28;20663;-67
2022/05/15 00:50:20;;;;;;;;;;;9.40;99.90;;;;;;5088333;28;20066;-67
2022/05/15 00:52:48;;;;;;;14.93;5.35;;;9.40;99.90;;;;;;5088705;28;19963;-67
2022/05/15 00:55:20;;;;;;;11.75;3.67;;;9.30;99.90;;;;;;5088269;28;20040;-66
2022/05/15 00:57:54;;;;;;;12.90;4.88;;;9.30;99.90;;;;;;5088213;28;20036;-67
2022/05/15 01:00:32;;;;;;;15.02;5.00;;;9.30;99.90;;;;;;5079907;28;20726;-66
2022/05/15 01:03:05;;;;;;;13.15;4.30;;;9.20;99.90;;;;;;5087540;28;20040;-67
2022/05/15 01:05:37;;;;;;;19.15;4.53;;;9.20;99.90;;;;;;5088191;28;20044;-66
2022/05/15 01:08:02;;;;;;;16.65;5.47;;;9.20;99.90;;;;;;5087416;28;20043;-67
2022/05/15 01:10:28;;;;;;;;;;;9.10;99.90;;;;;;5088390;28;20058;-66
2022/05/15 01:12:57;;;;;;;23.70;5.47;;;9.10;99.90;;;;;;5086089;28;19916;-67
2022/05/15 01:15:25;;;;;;;12.05;4.72;;;9.10;99.90;;;;;;5087743;28;20048;-66
2022/05/15 01:17:51;;;;;;;16.75;4.85;;;9.00;99.90;;;;;;5087570;28;20028;-66
2022/05/15 01:20:18;;;;;;;;;;;8.90;99.90;;;;;;5085425;28;20649;-68
2022/05/15 01:22:44;;;;;;;11.75;4.07;;;9.00;99.90;;;;;;5086455;28;19923;-66
2022/05/15 01:25:13;;;;;;;;;;;9.00;99.90;;;;;;5087677;28;20044;-67
2022/05/15 01:27:39;;;;;;;21.85;5.18;;;9.00;99.90;;;;;;5081654;28;19915;-66
2022/05/15 01:30:06;;;;;;;15.05;4.53;;;8.90;99.90;;;;;;5086475;28;20051;-67
2022/05/15 01:32:32;;;;;;;14.57;4.63;;;8.90;99.90;;;;;;5086223;28;20085;-66
2022/05/15 01:34:57;;;;;;;9.23;4.63;;;8.90;99.90;;;;;;5087625;28;20468;-67
2022/05/15 01:37:23;;;;;;;;;;;8.90;99.90;;;;;;5087345;28;20519;-66
2022/05/15 01:39:49;;;;;;;11.85;3.80;;;8.90;99.90;;;;;;5086980;28;19920;-65
2022/05/15 01:42:14;;;;;;;;;;;8.90;99.90;;;;;;5087385;28;20735;-65
2022/05/15 01:44:40;;;;;;;8.13;3.80;;;8.90;99.90;;;;;;5088684;28;19977;-65
2022/05/15 01:47:06;;;;;;;;;;;8.90;99.90;;;;;;5088111;28;20040;-65
2022/05/15 01:49:31;;;;;;;10.65;4.20;;;8.90;99.90;;;;;;5086696;28;20285;-64
2022/05/15 01:51:57;;;;;;;;;;;8.80;99.90;;;;;;5083826;28;20036;-64
2022/05/15 01:54:23;;;;;;;14.10;4.22;;;8.80;99.90;;;;;;5086489;28;19920;-65
2022/05/15 01:56:48;;;;;;;;;;;8.80;99.90;;;;;;5087499;28;20051;-64
2022/05/15 01:59:14;;;;;;;9.95;3.83;;;8.80;99.90;;;;;;5086711;28;20283;-65
2022/05/15 02:01:40;;;;;;;;;;;8.80;99.90;;;;;;5086129;28;20059;-64
2022/05/15 02:04:07;;;;;;;12.90;4.53;;;8.70;99.90;;;;;;5086491;28;19927;-64
2022/05/15 02:06:33;;;;;;;15.25;4.47;;;8.70;99.90;;;;;;5086552;28;20567;-65
2022/05/15 02:08:59;;;;;;;9.57;3.90;;;8.70;99.90;;;;;;5086244;28;20123;-65
2022/05/15 02:11:24;;;;;;;;;;;8.70;99.90;;;;;;5085965;28;20139;-65
2022/05/15 02:13:50;;;;;;;14.73;4.43;;;8.70;99.90;;;;;;5086527;28;20006;-65
2022/05/15 02:16:15;;;;;;;;;;;8.70;99.90;;;;;;5087129;28;20036;-65
2022/05/15 02:18:41;;;;;;;16.08;5.15;;;8.70;99.90;;;;;;5085852;28;20008;-65
2022/05/15 02:21:07;;;;;;;;;;;8.60;99.90;;;;;;5086797;28;20032;-65
2022/05/15 02:23:32;;;;;;;12.05;4.32;;;8.70;99.90;;;;;;5086118;28;19917;-66
2022/05/15 02:25:58;;;;;;;;;;;8.60;99.90;;;;;;5086781;28;20044;-65
2022/05/15 02:28:24;;;;;;;12.63;4.40;;;8.60;99.90;;;;;;5086567;28;19916;-64
2022/05/15 02:30:50;;;;;;;17.00;4.68;;;8.60;99.90;;;;;;5085063;28;20101;-64
2022/05/15 02:33:17;;;;;;;15.93;5.25;;;8.60;99.90;;;;;;5086688;28;20446;-64
2022/05/15 02:35:43;;;;;;;17.63;4.35;;;8.60;99.90;;;;;;5085603;28;20054;-63
2022/05/15 02:38:08;;;;;;;;;;;8.60;99.90;;;;;;5087222;28;20714;-63
2022/05/15 02:40:34;;;;;;;17.58;4.78;;;8.60;99.90;;;;;;5085586;28;19923;-64
2022/05/15 02:42:59;;;;;;;;;;;8.60;99.90;;;;;;5086842;28;20039;-65
2022/05/15 02:45:26;;;;;;;16.17;4.20;;;8.50;99.90;;;;;;5086286;28;19920;-64
2022/05/15 02:47:52;;;;;;;11.02;4.18;;;8.50;99.90;;;;;;5086280;28;20043;-64
2022/05/15 02:53:03;;;;;;;12.73;5.22;;;8.40;99.90;;;;;;5086545;28;20044;-65
2022/05/15 02:55:29;;;;;;;;;;;8.30;99.90;;;;;;5073836;28;20051;-65
2022/05/15 02:57:59;;;;;;;12.77;4.18;;;8.30;99.90;;;;;;5081591;28;19939;-64
2022/05/15 03:00:28;;;;;;;14.85;4.72;;;8.30;99.90;;;;;;5083900;28;20677;-65
2022/05/15 03:03:01;;;;;;;22.75;5.03;;;8.30;99.90;;;;;;5084424;28;20043;-65
2022/05/15 03:05:27;;;;;;;12.73;4.38;;;8.30;99.90;;;;;;5084618;28;20044;-64
2022/05/15 03:07:52;;;;;;;;;;;8.30;99.90;;;;;;5086829;28;20040;-65
2022/05/15 03:10:21;;;;;;;12.82;3.85;;;8.30;99.90;;;;;;5086020;28;19998;-65
2022/05/15 03:12:46;;;;;;;18.23;5.00;;;8.40;99.90;;;;;;5085688;28;20059;-64
2022/05/15 03:15:14;;;;;;;;;;;8.30;99.90;;;;;;5086065;28;20632;-65
2022/05/15 03:17:41;;;;;;;13.95;4.60;;;8.40;99.90;;;;;;5083644;28;19944;-65
2022/05/15 03:20:08;;;;;;;14.23;5.10;;;8.30;99.90;;;;;;5085691;28;20035;-65
2022/05/15 03:22:35;;;;;;;10.32;3.78;;;8.30;99.90;;;;;;5085854;28;20043;-64
2022/05/15 03:25:06;;;;;;;11.65;4.32;;;8.30;99.90;;;;;;5085428;28;20404;-64
2022/05/15 03:27:35;;;;;;;13.65;4.45;;;8.30;99.90;;;;;;5085427;28;20048;-65
2022/05/15 03:30:03;;;;;;;15.38;4.95;;;8.30;99.90;;;;;;5085445;28;20557;-64
2022/05/15 03:32:29;;;;;;;21.90;5.13;;;8.20;99.90;;;;;;5084264;28;20098;-65
2022/05/15 03:34:54;;;;;;;;;;;8.20;99.90;;;;;;5086117;28;20262;-64
2022/05/15 03:37:19;;;;;;;15.82;4.60;;;8.20;99.90;;;;;;5085250;28;20471;-65
2022/05/15 03:39:45;;;;;;;;;;;8.20;99.90;;;;;;5086286;28;20077;-64
2022/05/15 03:42:11;;;;;;;22.13;4.63;;;8.20;99.90;;;;;;5085095;28;19977;-64
2022/05/15 03:44:37;;;;;;;;;;;8.20;99.90;;;;;;5082261;28;20036;-65
2022/05/15 03:47:05;;;;;;;14.48;4.80;;;8.20;99.90;;;;;;5085662;28;19924;-65
2022/05/15 03:49:30;;;;;;;15.73;4.20;;;8.20;99.90;;;;;;5085427;28;20407;-65
2022/05/15 03:51:56;;;;;;;;;;;8.20;99.90;;;;;;5085502;28;20123;-65
2022/05/15 03:54:21;;;;;;;12.98;4.53;;;8.20;99.90;;;;;;5087616;28;19920;-65
2022/05/15 03:56:50;;;;;;;;;;;8.20;99.90;;;;;;5082882;28;20054;-65
2022/05/15 03:59:18;;;;;;;17.00;4.78;;;8.20;99.90;;;;;;5089196;28;19923;-64
2022/05/15 04:01:44;;;;;;;17.52;4.50;;;8.30;99.90;;;;;;5087377;28;20036;-67
2022/05/15 04:04:10;;;;;;;;;;;8.30;99.90;;;;;;5090791;28;20043;-67
2022/05/15 04:06:36;;;;;;;12.75;4.10;;;8.40;99.90;;;;;;5088256;28;19975;-67
2022/05/15 04:09:02;;;;;;;;;;;8.50;99.90;;;;;;5088368;28;20158;-67
2022/05/15 04:11:28;;;;;;;18.55;4.80;;;8.70;99.90;;;;;;5089060;28;20387;-67
2022/05/15 04:13:54;;;;;;;17.83;4.22;;;9.30;99.90;;;;;;5089521;28;20575;-66
2022/05/15 04:16:19;;;;;;;;;;;10.10;99.90;;;;;;5088927;28;20120;-67
2022/05/15 04:18:45;;;;;;;16.63;4.20;;;10.50;99.90;;;;;;5089128;28;19920;-63
2022/05/15 04:21:10;;;;;;;;;;;10.80;99.90;;;;;;5089151;28;20040;-63
2022/05/15 04:23:36;;;;;;;15.40;3.72;;;11.10;99.90;;;;;;5088380;28;19960;-64
2022/05/15 04:26:02;;;;;;;;;;;11.40;99.90;;;;;;5090286;28;20492;-63
2022/05/15 04:28:28;;;;;;;9.57;3.80;;;11.10;99.90;;;;;;5088810;28;19923;-64
2022/05/15 04:30:53;;;;;;;;;;;10.70;99.90;;;;;;5088204;28;20463;-64
2022/05/15 04:33:19;;;;;;;13.20;3.70;;;10.40;99.90;;;;;;5088287;28;19989;-63
2022/05/15 04:35:44;;;;;;;;;;;10.40;99.90;;;;;;5082506;28;20638;-63
2022/05/15 04:38:10;;;;;;;10.13;4.00;;;10.50;99.90;;;;;;5083661;28;20018;-65
2022/05/15 04:40:36;;;;;;;;;;;10.40;99.90;;;;;;5088907;28;20043;-68
2022/05/15 04:43:02;;;;;;;9.73;4.13;;;10.40;99.90;;;;;;5088337;28;19916;-65
2022/05/15 04:45:27;;;;;;;;;;;10.20;99.90;;;;;;5085474;28;20071;-65
2022/05/15 04:47:53;;;;;;;10.77;3.92;;;10.40;99.90;;;;;;5088106;28;19923;-65
2022/05/15 04:50:19;;;;;;;;;;;10.50;99.90;;;;;;5086840;28;20088;-65
2022/05/15 04:52:45;;;;;;;11.00;3.40;;;10.70;99.90;;;;;;5080281;28;19924;-65
2022/05/15 04:55:12;;;;;;;9.52;3.47;;;11.00;99.90;;;;;;5078201;28;20028;-64
2022/05/15 04:57:37;;;;;;;9.40;3.75;;;11.00;99.90;;;;;;5085251;28;20099;-65
2022/05/15 05:00:09;;;;;;;;;;;11.20;99.90;;;;;;5088358;28;20634;-63
2022/05/15 05:02:35;;;;;;;14.77;3.95;;;11.40;99.90;;;;;;5086971;28;19959;-63
2022/05/15 05:05:01;;;;;;;;;;;12.00;99.90;;;;;;5088672;28;20078;-62
2022/05/15 05:07:28;;;;;;;11.82;3.75;;;12.20;99.90;;;;;;5086768;28;19981;-62
2022/05/15 05:09:54;;;;;;;16.75;3.55;;;13.30;99.90;;;;;;5088213;28;20119;-67
2022/05/15 05:12:20;;;;;;;;;;;14.60;99.90;;;;;;5087910;28;20047;-62
2022/05/15 05:14:45;;;;;;;12.80;3.75;;;15.50;97.80;;;;;;5087840;28;19920;-65
2022/05/15 05:17:11;;;;;;;10.43;3.28;;;15.70;96.30;;;;;;5077968;28;20055;-65
2022/05/15 05:19:36;;;;;;;;;;;16.90;94.90;;;;;;5088354;28;20078;-66
2022/05/15 05:22:03;;;;;;;9.88;3.33;;;17.30;91.80;;;;;;5087345;28;19955;-68
2022/05/15 05:24:29;;;;;;;11.55;3.85;;;17.80;92.30;;;;;;5085161;28;20128;-67
2022/05/15 05:26:54;;;;;;;;;;;17.70;91.90;;;;;;5087937;28;20119;-67
2022/05/15 05:29:20;;;;;;;12.57;3.80;;;17.50;92.50;;;;;;5087678;28;19923;-69
2022/05/15 05:31:46;;;;;;;10.23;2.90;;;17.70;91.20;;;;;;5085984;28;20474;-68
2022/05/15 05:34:11;;;;;;;7.93;2.88;;;18.40;91.10;;;;;;5088171;28;20036;-67
2022/05/15 05:36:37;;;;;;;14.00;3.47;;;19.10;89.60;;;;;;5087485;28;20100;-69
2022/05/15 05:39:02;;;;;;;9.82;3.22;;;18.70;90.80;;;;;;5083609;28;20035;-64
2022/05/15 05:41:28;;;;;;;11.05;3.22;;;18.20;91.60;;;;;;5086588;28;20602;-64
2022/05/15 05:43:54;;;;;;;12.48;3.13;;;18.00;91.30;;;;;;5087653;28;20074;-65
2022/05/15 05:46:21;;;;;;;11.65;3.17;;;17.40;92.90;;;;;;5087003;28;20539;-64
2022/05/15 05:48:47;;;;;;;10.02;3.20;;;17.30;93.80;;;;;;5087423;28;20046;-63
2022/05/15 05:51:14;;;;;;;10.43;3.15;;;17.80;93.20;;;;;;5087495;28;20111;-63
2022/05/15 05:53:40;;;;;;;10.15;3.03;;;18.50;91.80;;;;;;5086852;28;20032;-64
2022/05/15 05:56:05;;;;;;;12.45;3.30;;;18.70;91.30;;;;;;5070872;28;20056;-64
2022/05/15 05:58:32;;;;;;;10.60;2.58;;;19.00;91.10;;;;;;5084010;28;20109;-63
2022/05/15 06:00:57;;;;;;;10.77;2.80;;;19.40;91.80;;;;;;5085501;28;20130;-63
2022/05/15 06:06:08;;;;;;;15.40;3.80;;;19.50;91.50;;;;;;5076938;28;20072;-64
2022/05/15 06:08:35;;;;;;;15.68;4.28;;;20.60;87.80;;;;;;5077743;28;20074;-64
2022/05/15 06:11:01;;;;;;;20.73;3.72;;;21.50;83.40;;;;;;5078599;28;20047;-63
2022/05/15 06:13:27;;;;;;;11.95;3.25;;;22.00;75.30;;;;;;5075031;28;20052;-64
2022/05/15 06:15:54;;;;;;;13.48;3.47;;;21.20;77.20;;;;;;5076451;28;20044;-62
2022/05/15 06:18:20;;;;;;;12.38;3.72;;;20.90;79.00;;;;;;5077560;28;20035;-64
2022/05/15 06:20:46;;;;;;;11.50;3.17;;;20.30;80.70;;;;;;5076182;28;20044;-64
2022/05/15 06:23:15;;;;;;;20.95;3.90;;;20.20;84.50;;;;;;5074108;28;20032;-63
2022/05/15 06:25:40;;;;;;;14.77;3.25;;;20.80;80.50;;;;;;5075155;28;20036;-64
2022/05/15 06:28:06;;;;;;;12.95;3.47;;;20.90;77.40;;;;;;5076261;28;20036;-63
2022/05/15 06:30:32;;;;;;;15.10;3.72;;;22.40;75.90;;;;;;5074741;28;20047;-63
2022/05/15 06:32:59;;;;;;;16.70;4.18;;;22.80;71.80;;;;;;5076304;28;20081;-65
2022/05/15 06:35:24;;;;;;;18.90;4.43;;;22.20;73.60;;;;;;5074833;28;20044;-62
2022/05/15 06:37:50;;;;;;;14.52;4.28;;;20.90;75.30;;;;;;5073355;28;20051;-63
2022/05/15 06:40:17;;;;;;;13.57;3.60;;;20.30;77.20;;;;;;5074605;28;20031;-63
2022/05/15 06:42:43;;;;;;;21.23;4.38;;;20.00;79.00;;;;;;5074617;28;20108;-63
2022/05/15 06:45:10;;;;;;;11.93;3.70;;;20.50;78.50;;;;;;5074831;28;20071;-63
2022/05/15 06:47:36;;;;;;;14.88;3.80;;;20.40;77.80;;;;;;5074542;28;20048;-63
2022/05/15 06:50:04;;;;;;;17.23;4.07;;;20.40;77.20;;;;;;5076263;28;20089;-64
2022/05/15 06:52:29;;;;;;;12.52;3.25;;;20.40;75.40;;;;;;5075742;28;20051;-66
2022/05/15 06:54:55;;;;;;;20.30;3.92;;;20.40;75.80;;;;;;5074404;28;20675;-64
2022/05/15 06:57:29;;;;;;;19.13;4.05;;;20.30;77.90;;;;;;5083087;28;20070;-64
2022/05/15 07:00:08;;;;;;;16.20;3.33;;;20.70;76.60;;;;;;5076638;28;20604;-64
2022/05/15 07:02:36;;;;;;;15.73;3.75;;;21.10;76.50;;;;;;5076995;28;20526;-65
2022/05/15 07:05:05;;;;;;;19.30;3.75;;;21.50;74.20;;;;;;5079148;28;20076;-65
2022/05/15 07:07:31;;;;;;;13.27;4.20;;;22.30;72.90;;;;;;5083622;28;20074;-64
2022/05/15 07:09:56;;;;;;;21.75;3.83;;;23.80;69.10;;;;;;5084558;28;20048;-65
2022/05/15 07:12:24;;;;;;;13.10;3.30;;;24.60;66.00;;;;;;5077422;28;20033;-65
2022/05/15 07:14:50;;;;;;;11.63;3.70;;;24.70;64.70;;;;;;5083879;28;20568;-65
2022/05/15 07:17:16;;;;;;;10.32;2.65;;;25.40;64.70;;;;;;5086226;28;20499;-65
2022/05/15 07:19:41;;;;;;;14.05;3.28;;;26.00;62.10;;;;;;5081731;28;20131;-65
2022/05/15 07:22:08;;;;;;;11.90;3.17;;;26.90;60.90;;;;;;5081427;28;20154;-65
2022/05/15 07:24:34;;;;;;;19.52;3.38;;;27.40;56.40;;;;;;5085858;28;20070;-65
2022/05/15 07:27:00;;;;;;;10.98;3.20;;;26.90;57.50;;;;;;5085966;28;20495;-65
2022/05/15 07:29:26;;;;;;;14.98;3.88;;;26.00;58.30;;;;;;5090155;28;20036;-64
2022/05/15 07:31:53;;;;;;;11.63;3.35;;;26.10;58.00;;;;;;5085482;28;20519;-65
2022/05/15 07:34:19;;;;;;;12.27;3.60;;;26.00;56.20;;;;;;5090325;28;20121;-65
2022/05/15 07:36:50;;;;;;;10.65;3.15;;;26.00;58.20;;;;;;5088984;28;20061;-64
2022/05/15 07:39:16;;;;;;;15.30;3.40;;;26.50;56.40;;;;;;5081823;28;20535;-64
2022/05/15 07:41:42;;;;;;;15.00;3.30;;;26.90;56.10;;;;;;5086889;28;20044;-65
2022/05/15 07:44:08;;;;;;;8.07;3.28;;;25.90;56.00;;;;;;5089889;28;20046;-64
2022/05/15 07:46:34;;;;;;;15.50;3.92;;;25.90;55.10;;;;;;5088557;28;20051;-65
2022/05/15 07:48:59;;;;;;;15.68;3.80;;;25.40;57.90;;;;;;5089907;28;20043;-65
2022/05/15 07:51:25;;;;;;;10.00;3.63;;;24.80;59.70;;;;;;5090312;28;21132;-64
2022/05/15 07:53:51;;;;;;;16.73;3.17;;;24.80;57.60;;;;;;5089391;28;20040;-64
2022/05/15 07:56:19;;;;;;;14.07;3.25;;;26.10;57.10;;;;;;5072695;28;20101;-65
2022/05/15 07:58:45;;;;;;;24.98;3.75;;;26.80;54.30;;;;;;5086729;28;20435;-65
2022/05/15 08:01:11;;;;;;;9.80;3.35;;;27.50;52.30;;;;;;5086733;28;20036;-65
2022/05/15 08:03:43;;;;;;;9.98;3.28;;;28.40;50.50;;;;;;5089058;28;20117;-64
2022/05/15 08:09:01;;;;;;;15.38;3.28;;;28.40;50.60;;;;;;5087964;28;20568;-64
2022/05/15 08:11:28;;;;;;;11.77;3.00;;;28.30;49.10;;;;;;5089029;28;20078;-65
2022/05/15 08:14:00;;;;;;;7.72;2.95;;;28.30;49.30;;;;;;5089439;28;20072;-65
2022/05/15 08:16:26;;;;;;;12.15;3.17;;;28.60;50.00;;;;;;5089591;28;20116;-65
2022/05/15 08:24:21;;;;;;;14.68;3.55;;;30.20;46.60;;;;;;5088659;28;20028;-65
2022/05/15 08:26:47;;;;;;;10.90;3.03;;;30.30;45.30;;;;;;5088410;28;20101;-65
2022/05/15 08:29:13;;;;;;;15.50;3.50;;;30.40;43.90;;;;;;5088804;28;20044;-66
2022/05/15 08:31:39;;;;;;;11.73;3.72;;;29.50;44.30;;;;;;5087458;28;20066;-64
2022/05/15 08:34:06;;;;;;;12.35;2.75;;;28.20;46.90;;;;;;5094564;28;20117;-65
2022/05/15 08:36:33;;;;;;;16.90;4.93;;;28.00;47.20;;;;;;5088809;28;20044;-65
2022/05/15 08:38:59;;;;;;;14.50;4.28;;;27.90;45.90;;;;;;5086410;28;20089;-65
2022/05/15 08:41:31;;;;;;;10.07;3.28;;;28.20;46.30;;;;;;5088426;28;20495;-65
2022/05/15 08:44:18;;;;;;;18.35;5.07;;;28.50;47.00;;;;;;5087119;28;20351;-66
2022/05/15 08:47:05;;;;;;;9.68;2.85;;;28.00;47.00;;;;;;5084743;28;20066;-65
2022/05/15 08:49:36;;;;;;;12.38;3.08;;;28.10;48.50;;;;;;5088782;28;20040;-64
2022/05/15 08:52:17;;;;;;;15.45;3.92;;;27.40;49.30;;;;;;5078938;28;20115;-65
2022/05/15 08:54:54;;;;;;;13.88;4.30;;;26.60;50.20;;;;;;5083188;28;20131;-64
2022/05/15 08:57:29;;;;;;;12.05;3.25;;;25.40;50.90;;;;;;5087392;28;20492;-64
2022/05/15 08:59:57;;;;;;;15.00;4.00;;;23.90;56.00;;;;;;5085859;28;20032;-65
2022/05/15 09:02:25;;;;;;;12.95;4.25;;;23.10;56.20;;;;;;5086971;28;20468;-64
2022/05/15 09:04:53;;;;;;;12.60;3.55;;;22.40;59.30;;;;;;5082702;28;20044;-64
2022/05/15 09:07:41;;;;;;;12.48;3.40;;;22.20;60.30;;;;;;5086534;28;20044;-64
2022/05/15 09:10:31;;;;;;;36.15;3.78;;;21.90;61.30;;;;;;5081609;28;20036;-64
2022/05/15 09:13:23;;;;;;;15.13;3.35;;;21.80;61.20;;;;;;5084452;28;20047;-63
2022/05/15 09:15:57;;;;;;;13.80;3.58;;;21.90;61.10;;;;;;5079776;28;20110;-64
2022/05/15 09:18:24;;;;;;;11.52;3.38;;;22.00;61.80;;;;;;5087545;28;20032;-64
2022/05/15 09:20:52;;;;;;;8.55;2.90;;;22.10;62.90;;;;;;5086282;28;20036;-64
2022/05/15 09:23:45;;;;;;;16.83;4.03;;;22.30;62.50;;;;;;5087380;28;20411;-63
2022/05/15 09:26:17;;;;;;;16.52;4.20;;;22.50;61.30;;;;;;5088081;28;20032;-63
2022/05/15 09:28:50;;;;;;;14.70;3.55;;;22.50;62.40;;;;;;5082031;28;20109;-61
2022/05/15 09:31:37;;;;;;;12.23;3.20;;;22.40;60.70;;;;;;5077878;28;20036;-63
2022/05/15 09:34:21;;;;;;;11.70;3.25;;;21.90;63.00;;;;;;5079061;28;20075;-62
2022/05/15 09:36:49;;;;;;;10.23;3.47;;;21.80;63.10;;;;;;5085903;28;20529;-63
2022/05/15 09:39:38;;;;;;;15.50;4.10;;;21.90;63.50;;;;;;5078477;28;20047;-62
2022/05/15 09:45:18;;;;;;;11.43;3.13;;;20.70;64.50;;;;;;5087209;28;20044;-63
2022/05/15 09:48:05;;;;;;;16.33;3.63;;;21.00;68.10;;;;;;5083598;28;20401;-63
2022/05/15 09:50:51;;;;;;;12.45;3.13;;;21.20;65.80;;;;;;5086163;28;20040;-63
2022/05/15 09:53:25;;;;;;;15.68;4.45;;;21.30;63.70;;;;;;5067364;28;20447;-65
2022/05/15 09:56:06;;;;;;;17.60;3.83;;;21.30;65.20;;;;;;5071163;28;20048;-64
2022/05/15 09:58:39;;;;;;;13.23;3.60;;;21.00;66.10;;;;;;5067340;28;20044;-63
2022/05/15 10:01:35;;;;;;;14.05;3.55;;;20.70;65.60;;;;;;5071138;28;20580;-63
2022/05/15 10:04:04;;;;;;;14.23;3.22;;;20.30;65.00;;;;;;5079577;28;20048;-65
2022/05/15 10:06:33;;;;;;;15.52;3.88;;;20.30;67.40;;;;;;5075872;28;20606;-66
2022/05/15 10:09:22;;;;;;;8.13;2.80;;;20.20;67.60;;;;;;5080643;28;20076;-64
2022/05/15 10:11:51;;;;;;;13.18;3.20;;;20.20;70.30;;;;;;5080464;28;20047;-64
2022/05/15 10:14:42;;;;;;;11.55;3.45;;;20.50;67.20;;;;;;5078642;28;20043;-64
2022/05/15 10:17:10;;;;;;;16.95;4.45;;;20.50;64.30;;;;;;5078864;28;20048;-65
2022/05/15 10:19:39;;;;;;;13.02;3.20;;;20.60;67.90;;;;;;5082891;28;20072;-64
2022/05/15 10:22:28;;;;;;;8.50;2.83;;;20.90;67.70;;;;;;5081311;28;20484;-63
2022/05/15 10:24:58;;;;;;;8.88;3.17;;;21.30;65.20;;;;;;5079805;28;20044;-64
2022/05/15 10:27:28;;;;;;;12.50;3.05;;;21.40;62.60;;;;;;5084498;28;20403;-63
2022/05/15 10:29:54;;;;;;;10.55;2.97;;;21.50;61.30;;;;;;5077674;28;20036;-62
2022/05/15 10:32:24;;;;;;;12.35;2.63;;;21.60;64.30;;;;;;5078388;28;20036;-63
2022/05/15 10:34:50;;;;;;;13.52;2.95;;;21.50;62.60;;;;;;5085536;28;20062;-62
2022/05/15 10:37:44;;;;;;;12.02;3.90;;;21.60;65.30;;;;;;5081353;28;20046;-63
2022/05/15 10:40:44;;;;;;;15.90;3.17;;;21.80;65.60;;;;;;5076738;28;20043;-63
2022/05/15 10:44:04;;;;;;;11.52;2.75;;;22.00;64.90;;;;;;5051557;28;20044;-64
2022/05/15 10:46:49;;;;;;;6.88;2.70;;;21.60;60.20;;;;;;5037237;28;20044;-64
2022/05/15 10:49:42;;;;;;;11.25;3.35;;;21.50;64.60;;;;;;5079910;28;20036;-64
2022/05/15 10:53:00;;;;;;;7.95;2.42;;;21.80;61.80;;;;;;5080117;28;20580;-64
2022/05/15 10:58:52;;;;;;;12.13;3.38;;;22.10;59.10;;;;;;5019982;28;20045;-63
2022/05/15 11:01:38;;;;;;;6.28;2.50;;;22.10;58.70;;;;;;5058166;28;20040;-63
2022/05/15 11:04:16;;;;;;;;;;;21.60;62.30;;;;;;5081443;28;20122;-63
2022/05/15 11:06:41;;;;;;;;;;;21.50;61.70;;;;;;5085083;28;19920;-62
2022/05/15 11:09:22;;;;;;;10.57;3.10;;;21.70;64.30;;;;;;5083487;28;20010;-63
2022/05/15 11:12:00;;;;;;;10.85;2.80;;;21.90;63.80;;;;;;5080726;28;20059;-63
2022/05/15 11:14:49;;;;;;;10.32;3.03;;;21.90;60.10;;;;;;5083653;28;20521;-63
2022/05/15 11:17:39;;;;;;;13.50;2.83;;;21.90;62.00;;;;;;5085044;28;20133;-63
2022/05/15 11:20:17;;;;;;;11.70;2.95;;;21.50;59.90;;;;;;5065114;28;20044;-63
2022/05/15 11:22:48;;;;;;;22.23;3.42;;;21.30;60.30;;;;;;5072847;28;20052;-62
2022/05/15 11:25:36;;;;;;;7.78;2.53;;;21.20;61.40;;;;;;5092863;28;20091;-63
2022/05/15 11:28:09;;;;;;;10.00;2.58;;;21.30;61.50;;;;;;5087176;28;20070;-63
2022/05/15 11:30:39;;;;;;;10.32;3.28;;;21.50;62.70;;;;;;5082515;28;20036;-63
2022/05/15 11:33:31;;;;;;;8.57;2.72;;;21.40;62.40;;;;;;5085559;28;20051;-63
2022/05/15 11:36:33;;;;;;;8.43;2.75;;;21.30;60.90;;;;;;5083592;28;20047;-63
2022/05/15 11:39:05;;;;;;;9.13;2.58;;;21.60;64.60;;;;;;5063303;28;20056;-63
2022/05/15 11:41:34;;;;;;;11.52;3.13;;;21.70;61.80;;;;;;5084627;28;20097;-61
2022/05/15 11:44:03;;;;;;;5.15;2.03;;;21.60;61.80;;;;;;5085026;28;20447;-64
2022/05/15 11:46:47;;;;;;;11.80;2.53;;;21.90;66.00;;;;;;5082791;28;20497;-64
2022/05/15 11:49:15;;;;;;;9.93;2.85;;;22.20;62.40;;;;;;5084756;28;20044;-63
2022/05/15 11:51:42;;;;;;;9.75;2.72;;;21.70;59.50;;;;;;5082246;28;20051;-63
2022/05/15 11:54:27;;;;;;;8.52;2.28;;;21.60;59.80;;;;;;5084311;28;20055;-63
2022/05/15 11:56:57;;;;;;;11.93;3.05;;;21.80;63.10;;;;;;5078779;28;20055;-64
2022/05/15 11:59:29;;;;;;;10.63;3.20;;;22.00;60.40;;;;;;5084922;28;20043;-63
2022/05/15 12:02:00;;;;;;;12.13;2.45;;;22.10;60.60;;;;;;5076953;28;20072;-63
2022/05/15 12:04:35;;;;;;;11.15;2.95;;;22.30;58.10;;;;;;5084889;28;20124;-63
2022/05/15 12:07:01;;;;;;;8.85;2.50;;;22.10;58.70;;;;;;5082309;28;20048;-63
2022/05/15 12:09:43;;;;;;;9.85;3.22;;;22.20;58.00;;;;;;5084115;28;20040;-64
2022/05/15 12:12:22;;;;;;;12.48;2.70;;;21.80;58.20;;;;;;5084034;28;20468;-64
2022/05/15 12:15:08;;;;;;;7.03;2.35;;;21.80;60.00;;;;;;5087539;28;20131;-64
2022/05/15 12:17:38;;;;;;;8.50;2.95;;;21.70;59.90;;;;;;5088054;28;20140;-63
2022/05/15 12:20:15;;;;;;;8.70;2.70;;;21.70;61.20;;;;;;5087126;28;20042;-63
2022/05/15 12:22:51;;;;;;;11.63;2.28;;;21.80;60.10;;;;;;5082032;28;20507;-63
2022/05/15 12:25:17;;;;;;;10.52;2.88;;;22.20;60.40;;;;;;5077467;28;20067;-63
2022/05/15 12:30:53;;;;;;;15.35;2.78;;;22.00;57.70;;;;;;5072645;28;20040;-63
2022/05/15 12:33:26;;;;;;;7.03;3.03;;;22.10;62.30;;;;;;5086575;28;20594;-63
2022/05/15 12:35:53;;;;;;;9.07;3.88;;;22.10;63.10;;;;;;5086491;28;20048;-64
2022/05/15 12:38:22;;;;;;;11.93;2.95;;;22.30;59.80;;;;;;5084992;28;20044;-63
2022/05/15 12:41:05;;;;;;;7.45;2.80;;;22.60;59.60;;;;;;5087222;28;20051;-63
2022/05/15 12:43:33;;;;;;;8.05;2.70;;;22.70;57.80;;;;;;5087422;28;20032;-63
2022/05/15 12:46:01;;;;;;;11.88;2.55;;;22.40;59.10;;;;;;5087485;28;20051;-63
2022/05/15 12:48:28;;;;;;;9.20;2.70;;;22.50;61.30;;;;;;5086946;28;20076;-63
2022/05/15 12:51:07;;;;;;;7.70;2.60;;;22.40;59.40;;;;;;5087286;28;20052;-62
2022/05/15 12:53:53;;;;;;;7.10;2.33;;;22.50;58.80;;;;;;5088703;28;20051;-62
2022/05/15 12:56:32;;;;;;;8.82;2.70;;;22.80;61.90;;;;;;5067913;28;20186;-63
2022/05/15 12:59:09;;;;;;;11.25;2.83;;;22.90;59.00;;;;;;5072074;28;20047;-64
2022/05/15 13:01:36;;;;;;;7.05;2.33;;;23.00;59.00;;;;;;5086146;28;20028;-63
2022/05/15 13:04:04;;;;;;;11.32;2.80;;;23.00;59.30;;;;;;5081815;28;20555;-62
2022/05/15 13:06:48;;;;;;;8.70;2.70;;;23.00;59.90;;;;;;5067129;28;20040;-63
2022/05/15 13:09:21;;;;;;;9.57;2.60;;;22.80;59.70;;;;;;5084742;28;20036;-63
2022/05/15 13:11:54;;;;;;;8.68;2.65;;;22.80;58.60;;;;;;5086876;28;20047;-63
2022/05/15 13:14:23;;;;;;;9.05;2.75;;;22.70;57.50;;;;;;5088886;28;20043;-63
2022/05/15 13:16:51;;;;;;;8.10;2.40;;;22.60;58.60;;;;;;5087027;28;20075;-64
2022/05/15 13:19:25;;;;;;;6.90;2.45;;;22.60;59.20;;;;;;5087303;28;20745;-63
2022/05/15 13:21:53;;;;;;;9.18;2.65;;;22.80;60.00;;;;;;5066655;28;20090;-63
2022/05/15 13:24:19;;;;;;;7.15;2.70;;;22.70;59.10;;;;;;5074079;28;20561;-63
2022/05/15 13:26:47;;;;;;;11.32;3.10;;;22.70;60.60;;;;;;5086984;28;20051;-63
2022/05/15 13:29:18;;;;;;;8.63;2.97;;;22.50;60.30;;;;;;5071219;28;20040;-63
2022/05/15 13:31:46;;;;;;;20.58;2.83;;;22.40;60.40;;;;;;5084186;28;20044;-63
2022/05/15 13:34:15;;;;;;;7.75;3.00;;;22.40;60.70;;;;;;5085011;28;20097;-63